Time;durP1;ratioP1;P1;durP2;ratioP2;P2;SDS_P1;SDS_P2;PMS_P1;PMS_P2;Temp;Humidity;BMP_temperature;BMP_pressure;BME280_temperature;BME280_humidity;BME280_pressure;Samples;Min_cycle;Max_cycle;Signal;HPM_P1;HPM_P2
2023/03/16 00:01:06;;;;;;;4.18;2.50;;;;;;;2.16;100.00;101758.75;4911224;29;20051;-75
2023/03/16 00:03:32;;;;;;;3.08;2.08;;;;;;;2.19;100.00;101761.41;4912207;29;20455;-74
2023/03/16 00:05:58;;;;;;;5.20;2.42;;;;;;;2.18;100.00;101749.19;4905563;29;20835;-74
2023/03/16 00:08:24;;;;;;;2.92;2.40;;;;;;;2.22;100.00;101752.69;4909310;29;20126;-74
2023/03/16 00:10:52;;;;;;;5.32;2.70;;;;;;;2.23;100.00;101749.22;4898632;29;20044;-74
2023/03/16 00:13:22;;;;;;;4.97;2.60;;;;;;;2.24;100.00;101745.72;4911938;29;20049;-74
2023/03/16 00:15:56;;;;;;;4.28;2.88;;;;;;;2.24;100.00;101746.59;4903101;29;20557;-74
2023/03/16 00:18:26;;;;;;;3.70;2.55;;;;;;;2.25;100.00;101740.53;4912242;29;20044;-73
2023/03/16 00:20:57;;;;;;;3.33;2.60;;;;;;;2.26;100.00;101739.66;4912345;29;20462;-73
2023/03/16 00:23:26;;;;;;;2.72;2.35;;;;;;;2.26;100.00;101737.03;4910544;29;20032;-75
2023/03/16 00:25:57;;;;;;;5.80;2.63;;;;;;;2.26;100.00;101734.44;4906970;29;20048;-74
2023/03/16 00:28:23;;;;;;;4.63;2.75;;;;;;;2.27;100.00;101728.31;4892563;29;20051;-73
2023/03/16 00:30:49;;;;;;;5.88;2.75;;;;;;;2.25;100.00;101727.47;4892040;29;21630;-74
2023/03/16 00:33:15;;;;;;;2.88;2.30;;;;;;;2.27;100.00;101730.06;4909010;29;20105;-74
2023/03/16 00:35:49;;;;;;;3.72;2.67;;;;;;;2.27;100.00;101730.06;4922318;28;20071;-73
2023/03/16 00:38:18;;;;;;;3.47;2.40;;;;;;;2.27;100.00;101715.25;4910107;29;20071;-74
2023/03/16 00:40:45;;;;;;;3.80;2.80;;;;;;;2.26;100.00;101716.13;4908627;29;20051;-74
2023/03/16 00:43:11;;;;;;;5.47;2.40;;;;;;;2.26;100.00;101713.53;4912361;29;20052;-74
2023/03/16 00:45:36;;;;;;;4.03;2.80;;;;;;;2.24;100.00;101707.38;4913108;29;20114;-74
2023/03/16 00:48:02;;;;;;;4.22;2.83;;;;;;;2.25;100.00;101713.50;4910328;29;20301;-74
2023/03/16 00:50:27;;;;;;;3.92;2.75;;;;;;;2.24;100.00;101707.38;4894239;29;20794;-74
2023/03/16 00:52:53;;;;;;;3.83;2.50;;;;;;;2.22;100.00;101698.69;4915762;29;20048;-74
2023/03/16 00:55:20;;;;;;;4.68;3.00;;;;;;;2.22;100.00;101696.06;4911960;29;20201;-74
2023/03/16 00:57:45;;;;;;;4.30;3.10;;;;;;;2.22;100.00;101693.47;4908093;29;20086;-74
2023/03/16 01:00:15;;;;;;;3.70;2.75;;;;;;;2.19;100.00;101693.47;4905390;29;20146;-75
2023/03/16 01:02:41;;;;;;;3.80;2.15;;;;;;;2.20;100.00;101687.38;4909123;29;20767;-74
2023/03/16 01:05:08;;;;;;;5.03;3.15;;;;;;;2.19;100.00;101692.56;4891947;29;20051;-74
2023/03/16 01:07:35;;;;;;;4.85;2.50;;;;;;;2.18;100.00;101686.47;4909759;29;20048;-74
2023/03/16 01:10:01;;;;;;;6.68;3.08;;;;;;;2.17;100.00;101680.38;4911381;29;20110;-74
2023/03/16 01:12:27;;;;;;;4.45;2.70;;;;;;;2.15;100.00;101678.63;4892830;29;21528;-74
2023/03/16 01:14:54;;;;;;;4.85;3.10;;;;;;;2.15;100.00;101666.47;4903160;29;20083;-74
2023/03/16 01:17:21;;;;;;;4.38;2.63;;;;;;;2.15;100.00;101657.72;4906144;29;20110;-74
2023/03/16 01:19:47;;;;;;;3.95;2.75;;;;;;;2.15;100.00;101665.56;4910159;29;20043;-74
2023/03/16 01:22:13;;;;;;;6.00;2.95;;;;;;;2.16;100.00;101656.84;4905651;29;20074;-74
2023/03/16 01:24:40;;;;;;;3.97;2.85;;;;;;;2.16;100.00;101651.63;4904911;29;20455;-75
2023/03/16 01:27:06;;;;;;;3.95;2.95;;;;;;;2.17;100.00;101653.38;4894254;29;20055;-74
2023/03/16 01:29:32;;;;;;;5.15;2.78;;;;;;;2.17;100.00;101643.81;4886753;28;20961;-74
2023/03/16 01:31:57;;;;;;;6.18;3.20;;;;;;;2.19;100.00;101645.53;4906710;29;20051;-75
2023/03/16 01:34:23;;;;;;;7.68;3.45;;;;;;;2.20;100.00;101644.66;4907348;29;20048;-75
2023/03/16 01:36:49;;;;;;;4.10;3.15;;;;;;;2.21;100.00;101634.22;4890613;29;20578;-75
2023/03/16 01:39:15;;;;;;;8.10;3.25;;;;;;;2.22;100.00;101630.75;4904196;29;20058;-75
2023/03/16 01:41:44;;;;;;;5.15;3.13;;;;;;;2.26;100.00;101626.41;4900577;29;20104;-75
2023/03/16 01:44:19;;;;;;;3.80;2.72;;;;;;;2.27;100.00;101622.91;4891420;29;20111;-75
2023/03/16 01:46:44;;;;;;;5.43;3.35;;;;;;;2.30;100.00;101628.16;4908049;29;20094;-75
2023/03/16 01:49:26;;;;;;;5.63;3.58;;;;;;;2.30;100.00;101621.16;4908806;29;20043;-75
2023/03/16 01:51:58;;;;;;;5.57;3.50;;;;;;;2.34;100.00;101608.97;4888010;29;20079;-75
2023/03/16 01:54:45;;;;;;;7.87;3.50;;;;;;;2.36;100.00;101603.75;4906633;28;20050;-75
2023/03/16 01:57:14;;;;;;;8.50;3.85;;;;;;;2.39;100.00;101601.16;4908236;29;20186;-74
2023/03/16 01:59:49;;;;;;;5.00;3.05;;;;;;;2.40;100.00;101593.31;4891178;29;20070;-75
2023/03/16 02:02:18;;;;;;;5.28;2.80;;;;;;;2.43;100.00;101589.81;4910593;29;20710;-75
2023/03/16 02:04:58;;;;;;;3.40;2.60;;;;;;;2.44;100.00;101592.44;4906159;29;20047;-75
2023/03/16 02:07:26;;;;;;;4.30;2.70;;;;;;;2.47;100.00;101594.19;4908588;29;20073;-75
2023/03/16 02:09:58;;;;;;;3.90;2.67;;;;;;;2.48;100.00;101588.09;4896932;29;20370;-75
2023/03/16 02:12:24;;;;;;;3.67;2.75;;;;;;;2.50;100.00;101590.72;4907329;28;20142;-74
2023/03/16 02:14:50;;;;;;;5.15;2.95;;;;;;;2.51;100.00;101595.91;4907827;29;20562;-74
2023/03/16 02:17:20;;;;;;;5.80;3.10;;;;;;;2.52;100.00;101576.78;4904793;29;20518;-74
2023/03/16 02:19:51;;;;;;;3.80;2.50;;;;;;;2.54;100.00;101574.13;4901891;29;20082;-74
2023/03/16 02:22:17;;;;;;;4.93;3.28;;;;;;;2.55;100.00;101576.75;4909665;29;20067;-74
2023/03/16 02:24:44;;;;;;;4.45;3.13;;;;;;;2.56;100.00;101573.28;4888492;29;20044;-74
2023/03/16 02:27:26;;;;;;;3.85;3.00;;;;;;;2.58;100.00;101576.75;4888650;29;20099;-75
2023/03/16 02:30:00;;;;;;;5.03;2.97;;;;;;;2.61;100.00;101569.78;4924899;28;20313;-74
2023/03/16 02:32:26;;;;;;;3.33;2.70;;;;;;;2.62;100.00;101576.75;4909884;29;20101;-74
2023/03/16 02:34:53;;;;;;;5.18;3.30;;;;;;;2.63;100.00;101573.28;4910947;29;20407;-74
2023/03/16 02:37:18;;;;;;;4.78;3.03;;;;;;;2.66;100.00;101573.28;4907058;29;20481;-74
2023/03/16 02:39:44;;;;;;;4.50;2.72;;;;;;;2.67;100.00;101569.78;4911984;29;20044;-74
2023/03/16 02:42:12;;;;;;;4.35;3.08;;;;;;;2.68;100.00;101569.78;4909313;29;20044;-74
2023/03/16 02:44:40;;;;;;;5.07;3.10;;;;;;;2.70;100.00;101562.81;4913653;29;20419;-74
2023/03/16 02:47:12;;;;;;;3.75;2.88;;;;;;;2.70;100.00;101559.31;4907705;29;20150;-74
2023/03/16 02:49:40;;;;;;;6.45;3.00;;;;;;;2.72;100.00;101557.56;4908026;29;20044;-74
2023/03/16 02:52:06;;;;;;;8.15;3.22;;;;;;;2.72;100.00;101553.22;4910179;29;20051;-74
2023/03/16 02:54:31;;;;;;;4.80;2.95;;;;;;;2.73;100.00;101559.34;4911213;29;20079;-74
2023/03/16 02:56:57;;;;;;;5.35;3.25;;;;;;;2.75;100.00;101552.34;4922445;28;20059;-74
2023/03/16 02:59:22;;;;;;;4.30;3.40;;;;;;;2.75;100.00;101552.34;4890058;29;20036;-74
2023/03/16 03:01:48;;;;;;;4.53;2.95;;;;;;;2.76;100.00;101542.75;4908162;29;20066;-74
2023/03/16 03:04:13;;;;;;;5.25;3.20;;;;;;;2.78;100.00;101538.41;4898590;29;20052;-74
2023/03/16 03:06:40;;;;;;;5.20;3.42;;;;;;;2.77;100.00;101545.34;4907400;29;20301;-74
2023/03/16 03:09:06;;;;;;;5.82;3.15;;;;;;;2.78;100.00;101535.78;4910588;29;20058;-74
2023/03/16 03:11:31;;;;;;;5.22;3.30;;;;;;;2.79;100.00;101529.66;4908294;29;20036;-74
2023/03/16 03:13:57;;;;;;;4.22;3.40;;;;;;;2.79;100.00;101530.53;4901245;29;20058;-74
2023/03/16 03:16:23;;;;;;;7.78;3.22;;;;;;;2.80;100.00;101529.69;4906237;29;20055;-74
2023/03/16 03:18:49;;;;;;;5.72;3.17;;;;;;;2.79;100.00;101519.22;4906118;29;20239;-74
2023/03/16 03:21:15;;;;;;;8.32;3.67;;;;;;;2.80;100.00;101516.59;4906194;28;20047;-74
2023/03/16 03:23:41;;;;;;;5.75;3.38;;;;;;;2.81;100.00;101510.50;4899028;29;20577;-74
2023/03/16 03:26:06;;;;;;;7.80;3.45;;;;;;;2.82;100.00;101503.50;4910221;29;20055;-74
2023/03/16 03:28:33;;;;;;;3.15;2.78;;;;;;;2.82;100.00;101500.88;4909793;28;20130;-73
2023/03/16 03:30:59;;;;;;;4.55;3.03;;;;;;;2.83;100.00;101490.41;4911432;29;20110;-74
2023/03/16 03:33:24;;;;;;;4.45;3.08;;;;;;;2.82;100.00;101483.47;4901354;29;20059;-74
2023/03/16 03:35:57;;;;;;;6.32;3.05;;;;;;;2.84;100.00;101489.53;4904703;29;20682;-74
2023/03/16 03:38:24;;;;;;;4.13;2.95;;;;;;;2.84;100.00;101486.06;4904035;29;20143;-74
2023/03/16 03:40:53;;;;;;;4.35;3.22;;;;;;;2.83;100.00;101490.41;4901899;29;20047;-74
2023/03/16 03:43:25;;;;;;;4.35;3.20;;;;;;;2.83;100.00;101485.19;4906781;29;20040;-74
2023/03/16 03:45:58;;;;;;;4.03;3.00;;;;;;;2.85;100.00;101483.44;4872110;29;20058;-74
2023/03/16 03:48:24;;;;;;;5.60;3.10;;;;;;;2.85;100.00;101485.19;4909857;29;20778;-74
2023/03/16 03:50:50;;;;;;;4.22;3.40;;;;;;;2.85;100.00;101477.34;4904939;29;20031;-74
2023/03/16 03:53:16;;;;;;;5.38;3.22;;;;;;;2.84;100.00;101473.84;4902317;29;20342;-74
2023/03/16 03:55:42;;;;;;;4.45;3.45;;;;;;;2.84;100.00;101468.63;4903627;29;20053;-74
2023/03/16 03:58:08;;;;;;;6.55;3.80;;;;;;;2.84;100.00;101468.63;4883241;29;20407;-74
2023/03/16 04:00:34;;;;;;;5.47;3.13;;;;;;;2.84;100.00;101468.63;4904595;28;20048;-73
2023/03/16 04:03:00;;;;;;;8.13;3.75;;;;;;;2.84;100.00;101467.75;4904854;29;20508;-73
2023/03/16 04:05:26;;;;;;;3.88;3.08;;;;;;;2.83;100.00;101464.25;4903450;29;20145;-74
2023/03/16 04:07:59;;;;;;;6.53;3.30;;;;;;;2.82;100.00;101465.16;4911453;29;20070;-74
2023/03/16 04:10:26;;;;;;;5.45;3.47;;;;;;;2.82;100.00;101469.50;4910840;29;20403;-74
2023/03/16 04:12:52;;;;;;;4.43;3.20;;;;;;;2.81;100.00;101462.53;4920911;28;20052;-73
2023/03/16 04:15:18;;;;;;;4.38;3.13;;;;;;;2.80;100.00;101466.91;4904203;29;20058;-74
2023/03/16 04:17:44;;;;;;;6.38;3.22;;;;;;;2.80;100.00;101464.28;4904625;29;20403;-74
2023/03/16 04:20:13;;;;;;;4.75;2.90;;;;;;;2.79;100.00;101459.91;4910956;28;20043;-74
2023/03/16 04:22:41;;;;;;;4.90;3.35;;;;;;;2.80;100.00;101458.19;4905330;29;20082;-75
2023/03/16 04:25:08;;;;;;;5.63;3.22;;;;;;;2.77;100.00;101456.44;4904918;29;20389;-74
2023/03/16 04:27:35;;;;;;;4.03;3.03;;;;;;;2.77;100.00;101458.19;4909997;29;20055;-74
2023/03/16 04:30:12;;;;;;;5.90;3.50;;;;;;;2.76;100.00;101456.44;4908752;29;20064;-74
2023/03/16 04:32:39;;;;;;;5.38;3.42;;;;;;;2.73;100.00;101457.34;4909974;29;20232;-74
2023/03/16 04:35:05;;;;;;;5.95;3.40;;;;;;;2.72;100.00;101450.34;4907260;29;20043;-74
2023/03/16 04:37:31;;;;;;;5.72;3.53;;;;;;;2.71;100.00;101451.22;4909247;29;20075;-73
2023/03/16 04:39:56;;;;;;;5.15;3.85;;;;;;;2.71;100.00;101451.22;4908986;29;20050;-73
2023/03/16 04:42:23;;;;;;;5.75;3.53;;;;;;;2.68;100.00;101446.88;4905817;29;20071;-73
2023/03/16 04:44:48;;;;;;;7.30;3.38;;;;;;;2.67;100.00;101439.06;4905691;29;20131;-74
2023/03/16 04:47:15;;;;;;;5.40;3.40;;;;;;;2.66;100.00;101447.78;4906828;29;20075;-74
2023/03/16 04:49:41;;;;;;;4.65;3.25;;;;;;;2.65;100.00;101446.00;4908060;29;20056;-74
2023/03/16 04:52:07;;;;;;;5.45;3.35;;;;;;;2.64;100.00;101452.13;4904721;28;20054;-74
2023/03/16 04:54:33;;;;;;;4.63;3.28;;;;;;;2.63;100.00;101453.00;4909441;29;20059;-74
2023/03/16 04:56:59;;;;;;;5.78;3.20;;;;;;;2.64;100.00;101439.03;4907522;29;20415;-73
2023/03/16 04:59:25;;;;;;;5.28;3.35;;;;;;;2.64;100.00;101434.69;4907393;29;20069;-74
2023/03/16 05:01:51;;;;;;;4.75;3.45;;;;;;;2.65;100.00;101428.59;4889255;29;20059;-74
2023/03/16 05:04:16;;;;;;;5.10;3.70;;;;;;;2.64;100.00;101434.69;4907615;29;20087;-73
2023/03/16 05:06:42;;;;;;;8.35;3.95;;;;;;;2.65;100.00;101439.03;4907404;29;20085;-74
2023/03/16 05:09:08;;;;;;;6.78;3.53;;;;;;;2.64;100.00;101433.81;4903842;29;20522;-73
2023/03/16 05:11:34;;;;;;;5.18;3.60;;;;;;;2.63;100.00;101421.63;4904844;29;20040;-74
2023/03/16 05:14:00;;;;;;;5.45;3.67;;;;;;;2.62;100.00;101425.97;4901976;29;20039;-74
2023/03/16 05:16:27;;;;;;;6.90;3.70;;;;;;;2.62;100.00;101438.19;4918367;28;20047;-74
2023/03/16 05:18:53;;;;;;;6.32;3.97;;;;;;;2.61;100.00;101424.22;4902774;29;20046;-74
2023/03/16 05:21:19;;;;;;;6.25;4.28;;;;;;;2.61;100.00;101418.16;4886576;29;20051;-74
2023/03/16 05:23:45;;;;;;;5.85;3.55;;;;;;;2.60;100.00;101413.81;4904521;29;20047;-74
2023/03/16 05:26:12;;;;;;;7.20;3.67;;;;;;;2.59;100.00;101420.75;4903043;29;20611;-75
2023/03/16 05:28:38;;;;;;;6.10;3.50;;;;;;;2.57;100.00;101407.69;4917121;28;20511;-74
2023/03/16 05:31:05;;;;;;;5.18;3.88;;;;;;;2.56;100.00;101407.72;4906059;28;20130;-74
2023/03/16 05:33:30;;;;;;;7.40;3.90;;;;;;;2.56;100.00;101410.31;4895081;29;20128;-75
2023/03/16 05:35:56;;;;;;;7.68;4.15;;;;;;;2.54;100.00;101401.59;4878769;29;20531;-75
2023/03/16 05:38:23;;;;;;;5.68;4.07;;;;;;;2.54;100.00;101398.97;4906890;28;20130;-74
2023/03/16 05:40:53;;;;;;;5.55;3.95;;;;;;;2.52;100.00;101403.34;4911235;29;20039;-75
2023/03/16 05:43:21;;;;;;;6.45;3.85;;;;;;;2.51;100.00;101399.84;4906863;28;20185;-74
2023/03/16 05:45:47;;;;;;;7.68;4.10;;;;;;;2.51;100.00;101402.47;4896576;28;20154;-74
2023/03/16 05:48:13;;;;;;;4.78;3.47;;;;;;;2.51;100.00;101401.63;4907967;28;20055;-74
2023/03/16 05:50:47;;;;;;;7.75;3.85;;;;;;;2.51;100.00;101399.00;4907331;29;20501;-74
2023/03/16 05:53:14;;;;;;;5.72;3.55;;;;;;;2.51;100.00;101402.47;4912338;29;20134;-74
2023/03/16 05:55:40;;;;;;;7.70;3.80;;;;;;;2.51;100.00;101397.25;4911941;29;20048;-74
2023/03/16 05:58:05;;;;;;;5.43;3.85;;;;;;;2.51;100.00;101394.63;4907098;28;20656;-74
2023/03/16 06:00:31;;;;;;;6.88;4.20;;;;;;;2.52;100.00;101399.00;4908765;29;20047;-74
2023/03/16 06:02:57;;;;;;;6.03;4.00;;;;;;;2.54;100.00;101391.13;4911192;28;20563;-74
2023/03/16 06:05:23;;;;;;;5.40;3.67;;;;;;;2.55;100.00;101387.66;4906120;28;20770;-74
2023/03/16 06:07:50;;;;;;;5.63;3.85;;;;;;;2.55;100.00;101385.03;4904045;28;20052;-74
2023/03/16 06:10:16;;;;;;;8.32;4.45;;;;;;;2.57;100.00;101384.16;4906120;29;20387;-74
2023/03/16 06:12:42;;;;;;;5.72;3.92;;;;;;;2.58;100.00;101383.28;4906959;28;21664;-74
2023/03/16 06:15:10;;;;;;;7.78;4.65;;;;;;;2.60;100.00;101374.59;4909119;28;21045;-74
2023/03/16 06:17:37;;;;;;;7.45;4.28;;;;;;;2.61;100.00;101382.41;4905998;28;20478;-73
2023/03/16 06:20:10;;;;;;;8.13;4.93;;;;;;;2.64;100.00;101384.13;4891234;29;20500;-73
2023/03/16 06:22:42;;;;;;;6.70;4.32;;;;;;;2.65;100.00;101380.63;4903948;28;20051;-73
2023/03/16 06:25:10;;;;;;;8.55;4.63;;;;;;;2.67;100.00;101378.91;4885904;29;20083;-73
2023/03/16 06:27:37;;;;;;;6.57;4.40;;;;;;;2.69;100.00;101385.00;4900933;28;20803;-74
2023/03/16 06:30:05;;;;;;;6.20;3.88;;;;;;;2.70;100.00;101366.69;4906725;29;20480;-73
2023/03/16 06:32:31;;;;;;;8.40;4.65;;;;;;;2.72;100.00;101378.00;4909681;28;20344;-74
2023/03/16 06:35:00;;;;;;;8.70;4.43;;;;;;;2.73;100.00;101381.50;4907037;28;20058;-74
2023/03/16 06:37:27;;;;;;;7.85;4.53;;;;;;;2.74;100.00;101378.00;4905532;28;20148;-74
2023/03/16 06:39:53;;;;;;;6.47;4.22;;;;;;;2.75;100.00;101373.63;4904589;28;20815;-74
2023/03/16 06:42:18;;;;;;;5.85;4.20;;;;;;;2.75;100.00;101379.75;4887362;29;20059;-75
2023/03/16 06:44:44;;;;;;;6.50;3.90;;;;;;;2.75;100.00;101379.75;4903718;28;20052;-75
2023/03/16 06:47:09;;;;;;;6.63;3.95;;;;;;;2.77;100.00;101371.91;4888213;29;20613;-74
2023/03/16 06:49:35;;;;;;;7.95;4.32;;;;;;;2.78;100.00;101374.47;4920761;28;20525;-73
2023/03/16 06:52:02;;;;;;;5.47;3.88;;;;;;;2.78;100.00;101369.25;4903488;29;20103;-74
2023/03/16 06:54:28;;;;;;;7.65;4.25;;;;;;;2.80;100.00;101377.97;4908742;28;20809;-75
2023/03/16 06:56:53;;;;;;;7.45;4.03;;;;;;;2.80;100.00;101370.13;4907480;28;20171;-74
2023/03/16 06:59:19;;;;;;;6.55;4.10;;;;;;;2.81;100.00;101374.50;4905625;28;20476;-74
2023/03/16 07:01:45;;;;;;;7.40;4.63;;;;;;;2.82;100.00;101364.88;4909390;28;20054;-74
2023/03/16 07:04:11;;;;;;;7.15;4.45;;;;;;;2.83;100.00;101375.34;4906607;29;20527;-74
2023/03/16 07:06:37;;;;;;;6.85;4.40;;;;;;;2.84;100.00;101377.06;4903586;29;20543;-74
2023/03/16 07:09:03;;;;;;;5.30;3.95;;;;;;;2.85;100.00;101370.13;4905431;28;20040;-74
2023/03/16 07:11:31;;;;;;;6.22;3.90;;;;;;;2.85;100.00;101365.72;4906121;29;20153;-74
2023/03/16 07:13:57;;;;;;;7.20;4.45;;;;;;;2.86;100.00;101366.63;4903470;29;20040;-75
2023/03/16 07:16:23;;;;;;;7.00;4.47;;;;;;;2.87;100.00;101367.50;4886522;29;21626;-75
2023/03/16 07:18:48;;;;;;;9.43;4.65;;;;;;;2.87;100.00;101368.34;4908668;29;21685;-74
2023/03/16 07:21:14;;;;;;;5.15;3.75;;;;;;;2.89;100.00;101376.19;4901330;29;20040;-74
2023/03/16 07:23:43;;;;;;;6.45;3.90;;;;;;;2.89;100.00;101371.81;4884726;29;20455;-75
2023/03/16 07:26:10;;;;;;;6.95;4.05;;;;;;;2.91;100.00;101369.19;4885475;29;20070;-74
2023/03/16 07:28:40;;;;;;;4.63;3.55;;;;;;;2.92;100.00;101376.16;4904457;28;20141;-85
2023/03/16 07:31:06;;;;;;;6.60;4.10;;;;;;;2.94;100.00;101369.19;4886001;29;20051;-74
2023/03/16 07:33:33;;;;;;;6.03;3.75;;;;;;;2.96;100.00;101368.28;4910029;29;20039;-73
2023/03/16 07:35:59;;;;;;;6.07;3.80;;;;;;;2.99;100.00;101372.63;4888260;29;20054;-75
2023/03/16 07:38:24;;;;;;;6.40;3.88;;;;;;;2.99;100.00;101376.13;4904969;29;20340;-74
2023/03/16 07:40:53;;;;;;;8.57;4.55;;;;;;;3.01;100.00;101373.53;4905639;29;20052;-73
2023/03/16 07:43:18;;;;;;;7.30;4.20;;;;;;;3.03;100.00;101379.59;4904703;29;21829;-74
2023/03/16 07:45:48;;;;;;;7.07;4.20;;;;;;;3.03;100.00;101369.16;4903257;28;20052;-74
2023/03/16 07:48:14;;;;;;;6.45;4.22;;;;;;;3.05;100.00;101377.84;4895340;28;20044;-74
2023/03/16 07:50:40;;;;;;;6.53;4.00;;;;;;;3.07;100.00;101375.22;4901011;28;20099;-74
2023/03/16 07:53:06;;;;;;;7.05;4.32;;;;;;;3.07;100.00;101376.09;4899326;28;20066;-74
2023/03/16 07:55:31;;;;;;;7.72;4.38;;;;;;;3.07;100.00;101370.88;4887036;29;20503;-75
2023/03/16 07:57:57;;;;;;;6.35;4.00;;;;;;;3.08;100.00;101367.38;4883763;29;20668;-75
2023/03/16 08:00:23;;;;;;;11.93;4.85;;;;;;;3.11;100.00;101375.19;4908350;29;20051;-75
2023/03/16 08:02:50;;;;;;;5.72;3.97;;;;;;;3.12;100.00;101368.22;4889777;29;20265;-76
2023/03/16 08:05:16;;;;;;;7.13;3.95;;;;;;;3.12;100.00;101363.00;4901117;29;20696;-75
2023/03/16 08:07:41;;;;;;;8.25;4.18;;;;;;;3.12;100.00;101363.00;4885904;29;20406;-74
2023/03/16 08:10:08;;;;;;;8.13;3.97;;;;;;;3.15;100.00;101364.72;4884047;29;20513;-75
2023/03/16 08:12:34;;;;;;;5.45;3.97;;;;;;;3.14;100.00;101361.22;4899781;29;20043;-74
2023/03/16 08:14:59;;;;;;;7.03;3.97;;;;;;;3.17;100.00;101355.09;4903610;29;20058;-75
2023/03/16 08:17:25;;;;;;;7.35;4.38;;;;;;;3.17;100.00;101355.09;4885582;29;20074;-75
2023/03/16 08:19:50;;;;;;;8.15;3.88;;;;;;;3.17;100.00;101352.50;4903677;29;20046;-75
2023/03/16 08:22:16;;;;;;;7.25;4.13;;;;;;;3.17;100.00;101348.16;4902479;28;20156;-74
2023/03/16 08:24:41;;;;;;;6.95;4.28;;;;;;;3.18;100.00;101346.38;4896074;29;20622;-74
2023/03/16 08:27:07;;;;;;;6.05;3.88;;;;;;;3.18;100.00;101360.34;4900204;29;20176;-75
2023/03/16 08:29:36;;;;;;;8.23;4.07;;;;;;;3.19;100.00;101351.59;4899946;28;20131;-75
2023/03/16 08:32:02;;;;;;;5.65;3.80;;;;;;;3.20;100.00;101352.47;4900679;29;20051;-75
2023/03/16 08:34:29;;;;;;;6.90;3.80;;;;;;;3.20;100.00;101350.72;4882508;29;20055;-74
2023/03/16 08:36:54;;;;;;;5.15;3.65;;;;;;;3.23;100.00;101360.31;4901853;28;20524;-73
2023/03/16 08:39:20;;;;;;;6.38;3.83;;;;;;;3.22;100.00;101353.34;4902160;28;20048;-73
2023/03/16 08:41:47;;;;;;;7.57;3.78;;;;;;;3.22;100.00;101354.19;4880894;29;20054;-73
2023/03/16 08:44:12;;;;;;;6.85;3.88;;;;;;;3.24;100.00;101359.41;4881337;29;20063;-73
2023/03/16 08:46:39;;;;;;;5.60;3.58;;;;;;;3.25;100.00;101363.78;4899638;29;20070;-74
2023/03/16 08:49:05;;;;;;;7.03;4.07;;;;;;;3.28;100.00;101357.66;4882935;29;20043;-75
2023/03/16 08:51:32;;;;;;;10.27;4.20;;;;;;;3.29;100.00;101362.00;4901659;29;21244;-74
2023/03/16 08:53:58;;;;;;;6.38;4.40;;;;;;;3.32;100.00;101347.16;4902380;29;20075;-74
2023/03/16 08:56:24;;;;;;;5.07;3.60;;;;;;;3.33;100.00;101348.03;4898987;29;20040;-74
2023/03/16 08:58:50;;;;;;;8.85;4.10;;;;;;;3.37;100.00;101348.00;4901267;28;20383;-75
2023/03/16 09:01:17;;;;;;;8.38;4.30;;;;;;;3.40;100.00;101342.72;4903793;29;20123;-73
2023/03/16 09:03:45;;;;;;;9.30;4.30;;;;;;;3.46;100.00;101351.41;4899581;28;20586;-74
2023/03/16 09:06:13;;;;;;;8.95;3.95;;;;;;;3.51;100.00;101347.03;4918474;28;20056;-74
2023/03/16 09:08:40;;;;;;;6.65;4.13;;;;;;;3.55;100.00;101350.47;4903452;29;20047;-75
2023/03/16 09:11:08;;;;;;;4.18;3.28;;;;;;;3.56;100.00;101341.75;4903645;28;20051;-74
2023/03/16 09:13:34;;;;;;;5.47;3.92;;;;;;;3.59;100.00;101336.50;4901632;29;20150;-73
2023/03/16 09:16:00;;;;;;;5.97;3.72;;;;;;;3.61;100.00;101342.56;4903205;28;20040;-74
2023/03/16 09:18:26;;;;;;;8.07;3.90;;;;;;;3.64;100.00;101338.19;4897994;28;20048;-74
2023/03/16 09:20:56;;;;;;;6.10;4.15;;;;;;;3.67;100.00;101332.91;4903196;28;20208;-74
2023/03/16 09:23:22;;;;;;;6.35;3.67;;;;;;;3.72;100.00;101337.25;4900216;28;20142;-74
2023/03/16 09:25:48;;;;;;;5.60;3.83;;;;;;;3.74;100.00;101340.72;4904506;28;21248;-74
2023/03/16 09:28:13;;;;;;;6.63;3.83;;;;;;;3.75;100.00;101337.19;4898200;28;21094;-74
2023/03/16 09:30:39;;;;;;;7.10;4.05;;;;;;;3.74;100.00;101333.72;4910200;29;21138;-74
2023/03/16 09:33:05;;;;;;;9.60;4.28;;;;;;;3.72;100.00;101332.88;4908754;29;21916;-74
2023/03/16 09:35:31;;;;;;;8.20;4.60;;;;;;;3.73;100.00;101328.50;4905342;28;20546;-74
2023/03/16 09:37:56;;;;;;;6.47;4.32;;;;;;;3.72;100.00;101335.50;4902396;28;20087;-74
2023/03/16 09:40:25;;;;;;;7.15;4.72;;;;;;;3.73;100.00;101328.50;4902518;29;20559;-73
2023/03/16 09:43:26;;;;;;;6.30;3.92;;;;;;;3.75;100.00;101321.47;4905600;28;20050;-74
2023/03/16 09:46:06;;;;;;;6.80;4.22;;;;;;;3.77;100.00;101312.72;4881419;28;20130;-74
2023/03/16 09:48:34;;;;;;;7.47;4.03;;;;;;;3.80;100.00;101310.09;4887009;28;20455;-74
2023/03/16 09:51:04;;;;;;;8.57;4.20;;;;;;;3.84;100.00;101316.19;4916335;28;20054;-75
2023/03/16 09:53:32;;;;;;;8.27;3.67;;;;;;;3.88;100.00;101301.28;4900394;29;20122;-75
2023/03/16 09:56:02;;;;;;;7.47;3.72;;;;;;;3.90;100.00;101315.25;4890279;28;20031;-75
2023/03/16 09:58:28;;;;;;;8.00;4.22;;;;;;;3.93;100.00;101302.97;4902213;28;20519;-75
2023/03/16 10:01:16;;;;;;;7.38;3.92;;;;;;;3.96;100.00;101309.09;4904906;28;20055;-74
2023/03/16 10:03:58;;;;;;;6.75;3.70;;;;;;;3.94;100.00;101312.56;4889414;29;21545;-74
2023/03/16 10:06:25;;;;;;;8.88;4.22;;;;;;;3.96;100.00;101316.94;4903206;29;20050;-76
2023/03/16 10:09:10;;;;;;;7.85;4.53;;;;;;;3.96;100.00;101314.34;4900531;29;20415;-75
2023/03/16 10:11:41;;;;;;;6.53;4.18;;;;;;;4.01;100.00;101317.75;4882462;29;20177;-75
2023/03/16 10:14:10;;;;;;;6.80;4.10;;;;;;;4.02;100.00;101309.88;4896208;28;21009;-76
2023/03/16 10:16:51;;;;;;;5.90;3.80;;;;;;;4.05;100.00;101309.84;4887526;29;20051;-75
2023/03/16 10:19:36;;;;;;;6.68;3.58;;;;;;;4.09;100.00;101300.22;4901102;29;20055;-75
2023/03/16 10:22:11;;;;;;;4.97;3.33;;;;;;;4.15;100.00;101307.97;4904492;28;20192;-75
2023/03/16 10:24:55;;;;;;;6.03;3.80;;;;;;;4.19;100.00;101303.56;4884564;29;20052;-76
2023/03/16 10:27:30;;;;;;;5.70;3.50;;;;;;;4.23;100.00;101307.91;4897662;28;20594;-74
2023/03/16 10:29:55;;;;;;;7.47;4.22;;;;;;;4.29;100.00;101305.22;4890031;29;20043;-74
2023/03/16 10:32:23;;;;;;;5.47;3.60;;;;;;;4.35;100.00;101301.63;4899303;28;20078;-75
2023/03/16 10:34:56;;;;;;;7.05;4.03;;;;;;;4.45;100.00;101298.03;4886704;29;20598;-75
2023/03/16 10:37:21;;;;;;;;;;;;;;;4.54;100.00;101296.16;4901353;28;20513;-75
2023/03/16 10:39:47;;;;;;;6.78;3.63;;;;;;;4.59;100.00;101294.38;4901916;29;19946;-74
2023/03/16 10:42:15;;;;;;;5.47;3.47;;;;;;;4.64;100.00;101296.91;4902065;29;20198;-74
2023/03/16 10:44:41;;;;;;;8.77;4.20;;;;;;;4.69;100.00;101303.84;4898156;29;22678;-74
2023/03/16 10:47:07;;;;;;;7.13;3.83;;;;;;;4.75;100.00;101295.03;4898313;28;20062;-74
2023/03/16 10:49:43;;;;;;;5.05;3.45;;;;;;;4.79;100.00;101288.84;4900100;28;20066;-74
2023/03/16 10:52:30;;;;;;;5.75;3.90;;;;;;;4.83;100.00;101281.78;4900544;29;20052;-75
2023/03/16 10:54:58;;;;;;;5.93;3.28;;;;;;;4.86;100.00;101287.84;4902696;28;20060;-75
2023/03/16 10:57:35;;;;;;;5.82;3.83;;;;;;;4.91;100.00;101273.81;4911873;29;20874;-75
2023/03/16 11:00:13;;;;;;;4.43;3.13;;;;;;;4.94;100.00;101268.50;4888948;29;20984;-75
2023/03/16 11:02:39;;;;;;;4.28;3.05;;;;;;;5.00;100.00;101264.03;4900084;28;20071;-75
2023/03/16 11:05:17;;;;;;;5.80;3.03;;;;;;;5.04;100.00;101272.75;4899148;29;20071;-75
2023/03/16 11:07:48;;;;;;;6.50;3.53;;;;;;;5.10;100.00;101263.88;4904474;29;20056;-76
2023/03/16 11:10:33;;;;;;;4.95;3.20;;;;;;;5.19;100.00;101257.63;4902867;29;20082;-76
2023/03/16 11:13:33;;;;;;;10.15;3.38;;;;;;;5.32;100.00;101263.56;4903026;28;20632;-76
2023/03/16 11:16:16;;;;;;;7.75;3.70;;;;;;;5.41;100.00;101253.75;4887440;29;20071;-76
2023/03/16 11:18:49;;;;;;;6.47;3.97;;;;;;;5.52;100.00;101255.34;4908017;29;20350;-76
2023/03/16 11:21:24;;;;;;;7.00;3.78;;;;;;;5.61;100.00;101254.31;4924660;28;20032;-76
2023/03/16 11:23:54;;;;;;;6.28;3.58;;;;;;;5.69;100.00;101262.91;4888021;29;20052;-76
2023/03/16 11:26:31;;;;;;;5.13;3.28;;;;;;;5.78;100.00;101252.22;4888229;29;20035;-76
2023/03/16 11:29:02;;;;;;;6.90;3.85;;;;;;;5.88;100.00;101241.56;4907660;29;20639;-76